createdAt,value
2018-06-10T00:01:18.633Z,"    0"
2018-06-10T00:06:14.549Z,"    0"
2018-06-10T00:11:10.802Z,"    0"
2018-06-10T00:16:06.543Z,"    0"
2018-06-10T00:21:02.225Z,"    0"
2018-06-10T00:25:58.247Z,"    0"
2018-06-10T00:30:53.827Z,"    0"
2018-06-10T00:35:51.100Z,"    0"
2018-06-10T00:40:47.076Z,"    0"
2018-06-10T00:45:43.512Z,"    0"
2018-06-10T00:50:39.212Z,"    0"
2018-06-10T00:55:34.969Z,"    0"
2018-06-10T01:00:30.731Z,"    0"
2018-06-10T01:05:26.445Z,"    0"
2018-06-10T01:10:22.196Z,"    0"
2018-06-10T01:15:18.155Z,"    0"
2018-06-10T01:20:14.274Z,"    0"
2018-06-10T01:25:10.325Z,"    0"
2018-06-10T01:30:06.409Z,"    0"
2018-06-10T01:35:04.187Z,"    0"
2018-06-10T01:39:59.691Z,"    0"
2018-06-10T01:44:56.750Z,"    0"
2018-06-10T01:49:52.975Z,"    0"
2018-06-10T01:54:48.868Z,"    0"
2018-06-10T01:59:44.956Z,"    0"
2018-06-10T02:04:40.717Z,"    0"
2018-06-10T02:09:38.389Z,"    0"
2018-06-10T02:14:33.897Z,"    0"
2018-06-10T02:19:29.670Z,"    0"
2018-06-10T02:24:25.561Z,"    0"
2018-06-10T02:29:21.573Z,"    0"
2018-06-10T02:34:18.375Z,"    0"
2018-06-10T02:39:15.182Z,"    0"
2018-06-10T02:44:10.469Z,"    0"
2018-06-10T02:49:07.746Z,"    0"
2018-06-10T02:54:04.215Z,"    0"
2018-06-10T02:58:59.998Z,"    0"
2018-06-10T03:03:55.906Z,"    0"
2018-06-10T03:08:51.824Z,"    0"
2018-06-10T03:13:48.897Z,"    0"
2018-06-10T03:18:44.191Z,"    0"
2018-06-10T03:23:40.430Z,"    0"
2018-06-10T03:28:36.219Z,"    0"
2018-06-10T03:33:33.086Z,"    0"
2018-06-10T03:38:28.754Z,"    0"
2018-06-10T03:43:25.574Z,"    0"
2018-06-10T03:48:22.194Z,"    0"
2018-06-10T03:53:17.695Z,"    0"
2018-06-10T03:58:13.503Z,"    5"
2018-06-10T04:03:09.595Z,"    5"
2018-06-10T04:08:05.372Z,"    5"
2018-06-10T04:13:02.452Z,"   10"
2018-06-10T04:17:58.981Z,"   10"
2018-06-10T04:22:55.416Z,"   10"
2018-06-10T04:27:50.947Z,"   15"
2018-06-10T04:32:46.498Z,"   20"
2018-06-10T04:37:43.384Z,"   25"
2018-06-10T04:42:38.828Z,"   35"
2018-06-10T04:47:34.741Z,"   40"
2018-06-10T04:52:30.920Z,"   45"
2018-06-10T04:57:26.768Z,"   35"
2018-06-10T05:02:22.670Z,"   50"
2018-06-10T05:07:19.829Z,"   55"
2018-06-10T05:12:16.570Z,"   60"
2018-06-10T05:17:12.579Z,"   60"
2018-06-10T05:22:08.491Z,"   55"
2018-06-10T05:27:04.483Z,"   55"
2018-06-10T05:32:00.455Z,"   60"
2018-06-10T05:36:56.356Z,"   60"
2018-06-10T05:41:52.727Z,"   70"
2018-06-10T05:46:48.893Z,"   80"
2018-06-10T05:51:45.935Z,"   80"
2018-06-10T05:56:41.751Z,"   75"
2018-06-10T06:01:37.768Z,"   70"
2018-06-10T06:06:33.729Z,"   70"
2018-06-10T06:11:30.743Z,"   80"
2018-06-10T06:16:27.346Z,"   80"
2018-06-10T06:21:23.126Z,"   85"
2018-06-10T06:26:20.191Z,"   70"
2018-06-10T06:31:16.970Z,"   75"
2018-06-10T06:36:13.871Z,"   75"
2018-06-10T06:41:09.519Z,"   75"
2018-06-10T06:46:05.450Z,"   85"
2018-06-10T06:51:02.416Z,"  100"
2018-06-10T06:55:59.717Z,"  110"
2018-06-10T07:00:56.330Z,"  125"
2018-06-10T07:05:53.194Z,"  155"
2018-06-10T07:10:48.817Z,"  180"
2018-06-10T07:15:45.519Z,"  190"
2018-06-10T07:20:41.503Z,"  230"
2018-06-10T07:25:38.179Z,"  220"
2018-06-10T07:30:34.287Z,"  195"
2018-06-10T07:35:30.355Z,"  285"
2018-06-10T07:40:26.744Z,"  295"
2018-06-10T07:45:23.240Z,"  260"
2018-06-10T07:50:19.086Z,"  270"
2018-06-10T07:55:15.038Z,"  210"
2018-06-10T08:00:11.043Z,"  330"
2018-06-10T08:05:07.615Z,"  420"
2018-06-10T08:10:04.237Z,"  410"
2018-06-10T08:15:00.545Z,"  365"
2018-06-10T08:19:57.217Z,"  505"
2018-06-10T08:24:53.584Z,"  360"
2018-06-10T08:29:49.876Z,"  345"
2018-06-10T08:34:45.719Z,"  290"
2018-06-10T08:39:42.947Z,"  270"
2018-06-10T08:44:38.368Z,"  310"
2018-06-10T08:49:34.959Z,"  285"
2018-06-10T08:54:30.769Z,"  255"
2018-06-10T08:59:26.575Z,"  435"
2018-06-10T09:04:23.721Z,"  355"
2018-06-10T09:09:19.546Z,"  260"
2018-06-10T09:14:15.628Z,"  475"
2018-06-10T09:19:14.305Z,"  505"
2018-06-10T09:24:10.481Z,"  415"
2018-06-10T09:29:06.531Z,"  505"
2018-06-10T09:34:03.607Z," 1735"
2018-06-10T09:39:01.586Z,"  630"
2018-06-10T09:44:01.747Z," 1665"
2018-06-10T09:48:58.669Z,"  475"
2018-06-10T09:53:53.025Z,"  375"
2018-06-10T09:58:48.706Z,"  255"
2018-06-10T10:03:43.858Z,"  310"
2018-06-10T10:08:39.893Z,"  335"
2018-06-10T10:13:35.206Z,"  435"
2018-06-10T10:18:31.468Z,"  865"
2018-06-10T10:23:30.491Z,"  745"
2018-06-10T10:28:28.310Z," 1125"
2018-06-10T10:33:26.096Z,"  650"
2018-06-10T10:38:20.536Z,"  365"
2018-06-10T10:43:16.397Z,"  440"
2018-06-10T10:48:12.891Z," 1135"
2018-06-10T10:53:10.657Z,"  605"
2018-06-10T10:58:06.549Z," 1740"
2018-06-10T11:03:03.871Z," 1380"
2018-06-10T11:08:02.897Z," 1830"
2018-06-10T11:12:59.577Z," 1840"
2018-06-10T11:17:56.859Z,"  620"
2018-06-10T11:22:50.285Z,"  500"
2018-06-10T11:27:45.815Z,"  480"
2018-06-10T11:32:40.645Z,"  620"
2018-06-10T11:37:37.906Z,"  550"
2018-06-10T11:42:33.628Z," 1595"
2018-06-10T11:47:31.094Z,"  790"
2018-06-10T11:52:27.923Z,"  585"
2018-06-10T11:57:22.487Z,"  420"
2018-06-10T12:02:18.239Z,"  460"
2018-06-10T12:07:14.535Z,"  380"
2018-06-10T12:12:10.226Z,"  620"
2018-06-10T12:17:05.948Z," 1525"
2018-06-10T12:22:03.230Z,"  615"
2018-06-10T12:27:01.241Z,"  825"
2018-06-10T12:31:57.618Z," 1290"
2018-06-10T12:36:53.797Z,"  445"
2018-06-10T12:41:51.017Z,"  425"
2018-06-10T12:46:46.175Z,"  485"
2018-06-10T12:51:42.000Z,"  420"
2018-06-10T12:56:38.016Z,"  330"
2018-06-10T13:01:34.634Z," 1420"
2018-06-10T13:06:31.101Z," 1025"
2018-06-10T13:11:28.531Z," 1255"
2018-06-10T13:16:24.914Z,"  655"
2018-06-10T13:21:21.557Z," 1065"
2018-06-10T13:26:18.579Z," 1195"
2018-06-10T13:31:14.349Z,"  510"
2018-06-10T13:36:08.807Z,"  405"
2018-06-10T13:41:03.713Z,"  280"
2018-06-10T13:45:59.171Z,"  425"
2018-06-10T13:50:55.059Z,"  385"
2018-06-10T13:55:51.740Z,"  485"
2018-06-10T14:00:48.579Z,"  520"
2018-06-10T14:05:44.513Z,"  370"
2018-06-10T14:10:40.137Z,"  280"
2018-06-10T14:15:35.969Z,"  260"
2018-06-10T14:20:31.625Z,"  250"
2018-06-10T14:25:28.188Z,"  200"
2018-06-10T14:30:23.484Z,"  205"
2018-06-10T14:35:19.391Z,"  215"
2018-06-10T14:40:15.290Z,"  250"
2018-06-10T14:45:12.719Z,"  210"
2018-06-10T14:50:09.675Z,"  275"
2018-06-10T14:55:05.425Z,"  235"
2018-06-10T15:00:02.424Z,"  235"
2018-06-10T15:04:58.505Z,"  245"
2018-06-10T15:09:55.501Z,"  225"
2018-06-10T15:14:51.515Z,"  230"
2018-06-10T15:19:47.186Z,"  220"
2018-06-10T15:24:43.250Z,"  220"
2018-06-10T15:29:39.422Z,"  190"
2018-06-10T15:34:35.336Z,"  205"
2018-06-10T15:39:31.539Z,"  215"
2018-06-10T15:44:28.350Z,"  230"
2018-06-10T15:49:24.440Z,"  165"
2018-06-10T15:54:20.249Z,"  155"
2018-06-10T15:59:15.947Z,"  130"
2018-06-10T16:04:12.256Z,"  150"
2018-06-10T16:09:08.865Z,"  150"
2018-06-10T16:14:04.592Z,"  130"
2018-06-10T16:19:00.285Z,"  120"
2018-06-10T16:23:56.447Z,"  120"
2018-06-10T16:28:53.018Z,"  110"
2018-06-10T16:33:48.554Z,"  110"
2018-06-10T16:38:44.455Z,"  105"
2018-06-10T16:43:40.468Z,"  105"
2018-06-10T16:48:37.021Z,"  105"
2018-06-10T16:53:32.825Z,"  100"
2018-06-10T16:58:28.701Z,"  100"
2018-06-10T17:03:25.672Z,"  100"
2018-06-10T17:08:21.273Z,"  100"
2018-06-10T17:13:17.297Z,"  100"
2018-06-10T17:18:13.356Z,"   95"
2018-06-10T17:23:09.173Z,"   95"
2018-06-10T17:28:05.352Z,"   95"
2018-06-10T17:33:00.996Z,"   90"
2018-06-10T17:37:57.717Z,"   85"
2018-06-10T17:42:53.157Z,"   85"
2018-06-10T17:47:50.607Z,"   80"
2018-06-10T17:52:45.990Z,"   75"
2018-06-10T17:57:42.914Z,"   70"
2018-06-10T18:02:38.786Z,"   70"
2018-06-10T18:07:34.555Z,"   70"
2018-06-10T18:12:30.426Z,"   75"
2018-06-10T18:17:26.285Z,"   75"
2018-06-10T18:22:22.155Z,"   65"
2018-06-10T18:27:18.013Z,"   60"
2018-06-10T18:32:14.063Z,"   60"
2018-06-10T18:37:10.876Z,"   60"
2018-06-10T18:42:06.917Z,"   55"
2018-06-10T18:47:02.537Z,"   50"
2018-06-10T18:51:59.430Z,"   45"
2018-06-10T18:56:55.369Z,"   40"
2018-06-10T19:01:51.487Z,"   35"
2018-06-10T19:06:47.135Z,"   30"
2018-06-10T19:11:43.897Z,"   25"
2018-06-10T19:16:39.807Z,"   20"
2018-06-10T19:21:35.356Z,"   20"
2018-06-10T19:26:30.961Z,"   15"
2018-06-10T19:31:26.800Z,"   10"
2018-06-10T19:36:22.676Z,"   10"
2018-06-10T19:41:18.538Z,"    5"
2018-06-10T19:46:15.320Z,"    5"
2018-06-10T19:51:10.687Z,"    0"
2018-06-10T19:56:06.362Z,"    0"
2018-06-10T20:01:02.434Z,"    0"
2018-06-10T20:05:58.414Z,"    0"
2018-06-10T20:10:54.185Z,"    0"
2018-06-10T20:15:50.147Z,"    0"
2018-06-10T20:20:47.242Z,"    0"
2018-06-10T20:25:43.669Z,"    0"
2018-06-10T20:30:40.078Z,"    0"
2018-06-10T20:35:35.762Z,"    0"
2018-06-10T20:40:32.390Z,"    0"
2018-06-10T20:45:28.991Z,"    0"
2018-06-10T20:50:24.389Z,"    0"
2018-06-10T20:55:20.895Z,"    0"
2018-06-10T21:00:17.133Z,"    0"
2018-06-10T21:05:12.938Z,"    0"
2018-06-10T21:10:09.860Z,"    0"
2018-06-10T21:15:06.135Z,"    0"
2018-06-10T21:20:01.821Z,"    0"
2018-06-10T21:24:59.260Z,"    0"
2018-06-10T21:29:55.778Z,"    0"
2018-06-10T21:34:51.158Z,"    0"
2018-06-10T21:39:46.969Z,"    0"
2018-06-10T21:44:42.883Z,"    0"
2018-06-10T21:49:39.157Z,"    0"
2018-06-10T21:54:34.886Z,"    0"
2018-06-10T21:59:30.690Z,"    0"
2018-06-10T22:04:26.387Z,"    0"
2018-06-10T22:09:22.133Z,"    0"
2018-06-10T22:14:17.820Z,"    0"
2018-06-10T22:19:14.964Z,"    0"
2018-06-10T22:24:10.738Z,"    0"
2018-06-10T22:29:06.672Z,"    0"
2018-06-10T22:34:02.975Z,"    0"
2018-06-10T22:39:00.081Z,"    0"
2018-06-10T22:43:55.646Z,"    0"
2018-06-10T22:48:51.487Z,"    0"
2018-06-10T22:53:47.372Z,"    0"
2018-06-10T22:58:42.974Z,"    0"
2018-06-10T23:03:40.027Z,"    0"
2018-06-10T23:08:36.585Z,"    0"
2018-06-10T23:13:32.233Z,"    0"
2018-06-10T23:18:27.924Z,"    0"
2018-06-10T23:23:24.709Z,"    0"
2018-06-10T23:28:20.152Z,"    0"
2018-06-10T23:33:16.011Z,"    0"
2018-06-10T23:38:11.916Z,"    0"
2018-06-10T23:43:08.406Z,"    0"
2018-06-10T23:48:04.264Z,"    0"
2018-06-10T23:53:00.081Z,"    0"
2018-06-10T23:57:55.803Z,"    0"
